createdAt,value
2023-03-21T00:01:55.754Z,7.20
2023-03-21T00:04:26.052Z,7.93
2023-03-21T00:06:56.316Z,6.60
2023-03-21T00:09:24.722Z,5.78
2023-03-21T00:11:53.129Z,6.32
2023-03-21T00:14:21.515Z,6.25
2023-03-21T00:16:50.860Z,6.40
2023-03-21T00:19:22.300Z,5.72
2023-03-21T00:22:06.432Z,6.20
2023-03-21T00:24:37.030Z,5.90
2023-03-21T00:29:54.685Z,6.60
2023-03-21T00:32:23.744Z,6.22
2023-03-21T00:35:06.752Z,6.75
2023-03-21T00:37:43.167Z,6.18
2023-03-21T00:40:25.477Z,6.80
2023-03-21T00:42:56.235Z,6.95
2023-03-21T00:45:24.826Z,7.15
2023-03-21T00:47:53.368Z,6.85
2023-03-21T00:50:23.481Z,8.43
2023-03-21T00:52:51.978Z,6.97
2023-03-21T00:55:21.468Z,7.70
2023-03-21T00:58:01.139Z,7.63
2023-03-21T01:00:30.562Z,6.00
2023-03-21T01:03:21.264Z,16.30
2023-03-21T01:06:07.064Z,7.57
2023-03-21T01:08:52.256Z,7.57
2023-03-21T01:11:24.802Z,6.47
2023-03-21T01:14:04.265Z,5.30
2023-03-21T01:16:40.277Z,6.18
2023-03-21T01:19:22.268Z,5.65
2023-03-21T01:21:54.734Z,5.00
2023-03-21T01:24:23.213Z,5.70
2023-03-21T01:26:51.671Z,4.60
2023-03-21T01:29:20.298Z,4.47
2023-03-21T01:31:48.953Z,4.93
2023-03-21T01:34:17.411Z,3.38
2023-03-21T01:36:46.100Z,4.13
2023-03-21T01:39:16.025Z,2.95
2023-03-21T01:41:45.361Z,3.42
2023-03-21T01:44:18.009Z,3.03
2023-03-21T01:47:00.069Z,3.83
2023-03-21T01:49:38.768Z,5.65
2023-03-21T01:52:20.969Z,3.05
2023-03-21T01:54:55.964Z,2.78
2023-03-21T01:57:41.047Z,3.33
2023-03-21T02:00:13.227Z,3.38
2023-03-21T02:02:52.622Z,3.25
2023-03-21T02:05:28.877Z,3.80
2023-03-21T02:07:57.908Z,4.00
2023-03-21T02:10:29.430Z,5.15
2023-03-21T02:13:08.180Z,4.28
2023-03-21T02:15:38.869Z,5.80
2023-03-21T02:18:17.517Z,3.63
2023-03-21T02:21:51.579Z,3.53
2023-03-21T02:25:16.254Z,4.07
2023-03-21T02:27:58.609Z,4.00
2023-03-21T02:31:22.808Z,5.10
2023-03-21T02:34:32.496Z,4.43
2023-03-21T02:37:37.576Z,4.35
2023-03-21T02:40:15.527Z,3.83
2023-03-21T02:43:01.399Z,4.68
2023-03-21T02:45:37.233Z,4.50
2023-03-21T02:48:20.265Z,4.55
2023-03-21T02:50:58.086Z,5.53
2023-03-21T02:53:34.831Z,4.90
2023-03-21T02:56:04.438Z,4.38
2023-03-21T02:58:34.650Z,3.80
2023-03-21T03:01:03.164Z,4.40
2023-03-21T03:03:34.853Z,5.53
2023-03-21T03:06:09.013Z,4.30
2023-03-21T03:09:01.873Z,5.50
2023-03-21T03:11:35.835Z,7.15
2023-03-21T03:14:46.791Z,6.47
2023-03-21T03:17:36.060Z,4.57
2023-03-21T03:20:34.177Z,4.68
2023-03-21T03:23:14.937Z,4.50
2023-03-21T03:25:51.198Z,5.05
2023-03-21T03:28:26.343Z,4.57
2023-03-21T03:31:08.063Z,4.82
2023-03-21T03:33:44.121Z,4.43
2023-03-21T03:36:33.484Z,5.28
2023-03-21T03:39:05.834Z,5.95
2023-03-21T03:42:06.005Z,6.75
2023-03-21T03:44:31.260Z,5.97
2023-03-21T03:47:05.409Z,6.05
2023-03-21T03:49:39.523Z,5.95
2023-03-21T03:52:15.903Z,5.63
2023-03-21T03:54:48.273Z,5.53
2023-03-21T03:57:19.389Z,4.72
2023-03-21T03:59:48.499Z,5.70
2023-03-21T04:02:17.422Z,6.35
2023-03-21T04:04:46.048Z,4.85
2023-03-21T04:07:14.848Z,6.45
2023-03-21T04:09:45.057Z,7.00
2023-03-21T04:12:14.201Z,6.50
2023-03-21T04:14:46.042Z,6.78
2023-03-21T04:17:15.814Z,6.45
2023-03-21T04:19:45.463Z,5.90
2023-03-21T04:22:14.719Z,6.43
2023-03-21T04:24:43.600Z,5.63
2023-03-21T04:27:12.237Z,6.65
2023-03-21T04:29:40.890Z,5.30
2023-03-21T04:32:16.491Z,6.50
2023-03-21T04:34:50.266Z,4.90
2023-03-21T04:37:19.429Z,6.53
2023-03-21T04:39:48.177Z,7.80
2023-03-21T04:42:18.625Z,8.32
2023-03-21T04:44:47.286Z,8.88
2023-03-21T04:47:20.340Z,6.60
2023-03-21T04:49:49.299Z,7.43
2023-03-21T04:52:18.362Z,9.38
2023-03-21T04:54:47.023Z,8.00
2023-03-21T04:57:15.965Z,6.60
2023-03-21T04:59:44.419Z,7.85
2023-03-21T05:02:13.269Z,6.07
2023-03-21T05:04:43.375Z,5.57
2023-03-21T05:07:12.501Z,6.75
2023-03-21T05:09:40.962Z,6.10
2023-03-21T05:12:09.387Z,5.57
2023-03-21T05:14:37.812Z,8.55
2023-03-21T05:17:06.307Z,5.85
2023-03-21T05:19:36.303Z,6.60
2023-03-21T05:22:10.200Z,6.03
2023-03-21T05:24:41.905Z,7.63
2023-03-21T05:27:10.610Z,7.45
2023-03-21T05:29:39.043Z,8.25
2023-03-21T05:32:07.645Z,9.30
2023-03-21T05:34:36.045Z,7.72
2023-03-21T05:37:04.423Z,7.50
2023-03-21T05:39:34.238Z,6.40
2023-03-21T05:42:02.666Z,6.18
2023-03-21T05:44:31.125Z,7.68
2023-03-21T05:46:59.665Z,7.10
2023-03-21T05:49:28.117Z,6.10
2023-03-21T05:51:56.578Z,6.60
2023-03-21T05:54:25.044Z,7.60
2023-03-21T05:56:54.840Z,7.25
2023-03-21T05:59:23.292Z,6.63
2023-03-21T06:01:51.732Z,10.95
2023-03-21T06:04:20.282Z,6.88
2023-03-21T06:06:48.664Z,9.20
2023-03-21T06:09:17.104Z,6.28
2023-03-21T06:11:52.844Z,7.68
2023-03-21T06:14:23.420Z,10.68
2023-03-21T06:16:53.891Z,12.50
2023-03-21T06:19:22.617Z,7.95
2023-03-21T06:21:51.309Z,8.98
2023-03-21T06:24:19.904Z,7.13
2023-03-21T06:26:48.456Z,6.93
2023-03-21T06:29:16.950Z,6.88
2023-03-21T06:31:46.822Z,6.60
2023-03-21T06:34:15.456Z,6.70
2023-03-21T06:36:44.778Z,6.70
2023-03-21T06:39:13.511Z,7.13
2023-03-21T06:41:41.978Z,10.30
2023-03-21T06:44:10.515Z,8.88
2023-03-21T06:46:38.985Z,6.38
2023-03-21T06:49:08.814Z,6.82
2023-03-21T06:51:37.532Z,7.90
2023-03-21T06:54:05.985Z,6.75
2023-03-21T06:56:34.442Z,7.72
2023-03-21T06:59:03.654Z,6.28
2023-03-21T07:01:32.252Z,9.98
2023-03-21T07:04:00.702Z,5.57
2023-03-21T07:06:30.517Z,7.35
2023-03-21T07:08:59.286Z,6.05
2023-03-21T07:11:28.128Z,5.78
2023-03-21T07:13:56.627Z,7.45
2023-03-21T07:16:25.511Z,5.72
2023-03-21T07:18:54.642Z,5.05
2023-03-21T07:21:23.155Z,6.95
2023-03-21T07:23:53.593Z,11.65
2023-03-21T07:26:22.828Z,5.80
2023-03-21T07:28:51.226Z,6.00
2023-03-21T07:31:19.768Z,4.90
2023-03-21T07:33:48.270Z,7.00
2023-03-21T07:36:17.414Z,6.57
2023-03-21T07:38:46.668Z,6.05
2023-03-21T07:43:50.139Z,5.57
2023-03-21T07:46:18.658Z,4.97
2023-03-21T07:48:47.145Z,4.97
2023-03-21T07:51:15.586Z,5.18
2023-03-21T07:53:48.485Z,5.80
2023-03-21T07:56:18.261Z,4.43
2023-03-21T07:58:46.717Z,7.20
2023-03-21T08:01:15.440Z,7.97
2023-03-21T08:03:44.285Z,6.70
2023-03-21T08:06:12.831Z,6.82
2023-03-21T08:08:41.349Z,23.35
2023-03-21T08:11:10.375Z,6.18
2023-03-21T08:13:41.185Z,4.95
2023-03-21T08:16:10.781Z,3.88
2023-03-21T08:18:39.256Z,6.93
2023-03-21T08:21:09.699Z,6.05
2023-03-21T08:23:38.228Z,5.07
2023-03-21T08:26:07.712Z,5.40
2023-03-21T08:28:36.716Z,9.63
2023-03-21T08:31:11.349Z,5.82
2023-03-21T08:33:40.556Z,8.55
2023-03-21T08:36:10.661Z,5.65
2023-03-21T08:38:39.690Z,4.30
2023-03-21T08:41:08.788Z,5.93
2023-03-21T08:43:37.237Z,4.35
2023-03-21T08:46:05.959Z,4.43
2023-03-21T08:48:38.805Z,4.53
2023-03-21T08:51:07.701Z,6.18
2023-03-21T08:53:36.369Z,5.20
2023-03-21T08:56:05.056Z,5.65
2023-03-21T08:58:33.547Z,5.95
2023-03-21T09:01:02.073Z,4.97
2023-03-21T09:03:30.591Z,6.97
2023-03-21T09:06:00.898Z,7.20
2023-03-21T09:08:29.358Z,5.90
2023-03-21T09:10:58.551Z,6.55
2023-03-21T09:13:27.068Z,6.32
2023-03-21T09:15:58.269Z,6.85
2023-03-21T09:18:45.379Z,6.57
2023-03-21T09:21:16.242Z,8.82
2023-03-21T09:23:46.264Z,10.27
2023-03-21T09:26:16.264Z,6.20
2023-03-21T09:28:46.270Z,8.82
2023-03-21T09:31:16.666Z,6.57
2023-03-21T09:33:45.250Z,6.45
2023-03-21T09:36:15.527Z,7.28
2023-03-21T09:38:46.073Z,7.47
2023-03-21T09:41:46.724Z,6.95
2023-03-21T09:44:32.995Z,8.80
2023-03-21T09:47:15.349Z,6.32
2023-03-21T09:49:49.183Z,7.10
2023-03-21T09:52:25.679Z,5.70
2023-03-21T09:54:55.799Z,4.57
2023-03-21T09:57:34.939Z,5.50
2023-03-21T10:00:12.344Z,4.40
2023-03-21T10:02:48.077Z,4.70
2023-03-21T10:05:21.825Z,6.00
2023-03-21T10:07:59.733Z,5.03
2023-03-21T10:10:31.448Z,4.43
2023-03-21T10:13:00.090Z,5.57
2023-03-21T10:15:28.964Z,5.65
2023-03-21T10:18:03.361Z,5.50
2023-03-21T10:20:33.936Z,5.10
2023-03-21T10:23:08.185Z,5.88
2023-03-21T10:25:41.784Z,3.53
2023-03-21T10:28:17.591Z,9.05
2023-03-21T10:30:49.528Z,4.93
2023-03-21T10:33:21.686Z,4.10
2023-03-21T10:35:54.501Z,6.03
2023-03-21T10:38:27.557Z,4.97
2023-03-21T10:40:57.109Z,6.57
2023-03-21T10:43:37.936Z,5.28
2023-03-21T10:46:14.731Z,6.55
2023-03-21T10:48:47.134Z,7.68
2023-03-21T10:51:21.908Z,6.88
2023-03-21T10:53:57.179Z,6.50
2023-03-21T10:56:29.500Z,5.68
2023-03-21T10:59:00.462Z,6.60
2023-03-21T11:01:35.337Z,6.18
2023-03-21T11:04:11.313Z,5.68
2023-03-21T11:06:42.445Z,8.55
2023-03-21T11:09:19.737Z,7.47
2023-03-21T11:11:54.501Z,5.22
2023-03-21T11:14:34.378Z,4.80
2023-03-21T11:17:03.149Z,6.35
2023-03-21T11:19:34.537Z,4.72
2023-03-21T11:22:08.896Z,4.85
2023-03-21T11:24:38.816Z,4.75
2023-03-21T11:27:09.529Z,6.10
2023-03-21T11:29:40.624Z,5.50
2023-03-21T11:32:14.797Z,6.72
2023-03-21T11:34:49.744Z,5.53
2023-03-21T11:37:23.407Z,5.60
2023-03-21T11:39:58.256Z,7.15
2023-03-21T11:42:32.841Z,5.97
2023-03-21T11:45:13.969Z,5.50
2023-03-21T11:47:42.640Z,5.25
2023-03-21T11:50:25.636Z,5.15
2023-03-21T11:53:26.718Z,6.22
2023-03-21T11:56:11.734Z,6.70
2023-03-21T11:59:01.676Z,4.75
2023-03-21T12:01:39.007Z,5.05
2023-03-21T12:04:22.420Z,4.95
2023-03-21T12:06:57.462Z,5.38
2023-03-21T12:09:37.992Z,6.13
2023-03-21T12:12:38.807Z,6.13
2023-03-21T12:15:18.903Z,4.68
2023-03-21T12:17:59.813Z,9.60
2023-03-21T12:20:38.943Z,4.65
2023-03-21T12:23:30.955Z,3.83
2023-03-21T12:26:15.075Z,4.90
2023-03-21T12:29:00.510Z,4.60
2023-03-21T12:31:39.824Z,4.47
2023-03-21T12:34:29.315Z,4.40
2023-03-21T12:37:13.998Z,3.65
2023-03-21T12:39:42.855Z,3.80
2023-03-21T12:42:39.285Z,3.63
2023-03-21T12:45:18.393Z,3.35
2023-03-21T12:47:56.223Z,6.35
2023-03-21T12:50:32.926Z,4.65
2023-03-21T12:53:18.747Z,5.05
2023-03-21T12:55:47.525Z,3.65
2023-03-21T12:58:22.752Z,6.57
2023-03-21T13:00:57.445Z,7.03
2023-03-21T13:03:39.937Z,3.85
2023-03-21T13:06:12.783Z,3.65
2023-03-21T13:08:46.342Z,3.58
2023-03-21T13:11:20.641Z,2.60
2023-03-21T13:13:55.092Z,4.00
2023-03-21T13:16:29.777Z,3.33
2023-03-21T13:19:10.568Z,3.17
2023-03-21T13:21:51.973Z,3.83
2023-03-21T13:24:29.409Z,3.35
2023-03-21T13:27:06.737Z,3.92
2023-03-21T13:29:45.992Z,5.00
2023-03-21T13:32:30.849Z,4.22
2023-03-21T13:35:04.011Z,3.28
2023-03-21T13:37:36.911Z,3.75
2023-03-21T13:40:21.000Z,3.03
2023-03-21T13:42:54.649Z,3.03
2023-03-21T13:45:31.942Z,3.08
2023-03-21T13:48:05.386Z,2.72
2023-03-21T13:50:54.790Z,3.58
2023-03-21T13:53:32.663Z,2.35
2023-03-21T13:56:22.289Z,2.67
2023-03-21T13:59:04.933Z,3.47
2023-03-21T14:01:41.507Z,5.03
2023-03-21T14:04:24.770Z,3.25
2023-03-21T14:07:03.201Z,2.15
2023-03-21T14:09:36.757Z,3.53
2023-03-21T14:12:09.627Z,1.77
2023-03-21T14:14:43.079Z,3.95
2023-03-21T14:17:15.464Z,2.13
2023-03-21T14:19:45.405Z,2.40
2023-03-21T14:22:15.837Z,5.63
2023-03-21T14:24:50.876Z,3.72
2023-03-21T14:27:21.433Z,4.28
2023-03-21T14:29:53.400Z,8.32
2023-03-21T14:32:26.961Z,2.83
2023-03-21T14:34:58.943Z,3.20
2023-03-21T14:37:31.157Z,2.95
2023-03-21T14:40:01.729Z,2.67
2023-03-21T14:42:35.143Z,2.33
2023-03-21T14:45:18.893Z,3.72
2023-03-21T14:48:01.056Z,2.45
2023-03-21T14:50:39.926Z,3.38
2023-03-21T14:53:12.850Z,7.20
2023-03-21T14:55:46.361Z,4.75
2023-03-21T14:58:17.647Z,2.65
2023-03-21T15:00:49.638Z,3.08
2023-03-21T15:03:20.203Z,2.60
2023-03-21T15:05:50.529Z,3.85
2023-03-21T15:08:22.040Z,2.92
2023-03-21T15:11:06.982Z,3.28
2023-03-21T15:13:41.446Z,1.95
2023-03-21T15:16:11.429Z,5.70
2023-03-21T15:18:41.276Z,2.78
2023-03-21T15:21:16.591Z,3.22
2023-03-21T15:23:48.065Z,3.03
2023-03-21T15:26:20.604Z,3.45
2023-03-21T15:28:51.650Z,3.17
2023-03-21T15:31:23.263Z,3.00
2023-03-21T15:33:54.656Z,2.55
2023-03-21T15:36:28.419Z,3.28
2023-03-21T15:38:57.308Z,2.90
2023-03-21T15:41:31.225Z,4.88
2023-03-21T15:44:13.475Z,3.22
2023-03-21T15:46:44.974Z,2.42
2023-03-21T15:49:25.381Z,4.20
2023-03-21T15:52:02.548Z,4.20
2023-03-21T15:54:34.244Z,6.13
2023-03-21T15:57:09.505Z,7.10
2023-03-21T15:59:43.559Z,4.60
2023-03-21T16:02:21.279Z,10.07
2023-03-21T16:05:01.677Z,3.80
2023-03-21T16:07:36.126Z,9.23
2023-03-21T16:10:06.260Z,4.07
2023-03-21T16:12:35.348Z,3.55
2023-03-21T16:15:03.849Z,3.35
2023-03-21T16:17:37.865Z,3.65
2023-03-21T16:20:17.943Z,3.10
2023-03-21T16:22:48.182Z,4.43
2023-03-21T16:25:18.133Z,4.90
2023-03-21T16:27:47.626Z,3.33
2023-03-21T16:30:19.927Z,4.28
2023-03-21T16:32:49.953Z,3.90
2023-03-21T16:35:21.099Z,4.45
2023-03-21T16:37:52.169Z,3.88
2023-03-21T16:40:30.009Z,2.92
2023-03-21T16:42:58.497Z,3.58
2023-03-21T16:45:28.849Z,2.47
2023-03-21T16:47:57.747Z,3.85
2023-03-21T16:50:31.771Z,2.63
2023-03-21T16:53:01.916Z,2.80
2023-03-21T16:55:33.070Z,3.25
2023-03-21T16:58:02.406Z,2.35
2023-03-21T17:00:32.077Z,2.60
2023-03-21T17:03:03.968Z,3.15
2023-03-21T17:05:32.775Z,3.97
2023-03-21T17:08:04.629Z,3.83
2023-03-21T17:10:35.629Z,2.47
2023-03-21T17:13:04.097Z,4.00
2023-03-21T17:15:32.526Z,3.63
2023-03-21T17:18:01.188Z,3.65
2023-03-21T17:20:33.653Z,16.00
2023-03-21T17:23:04.402Z,4.13
2023-03-21T17:25:32.861Z,3.60
2023-03-21T17:28:01.546Z,3.80
2023-03-21T17:30:35.563Z,3.45
2023-03-21T17:33:04.947Z,3.83
2023-03-21T17:35:33.808Z,5.85
2023-03-21T17:38:04.542Z,4.72
2023-03-21T17:40:34.594Z,3.78
2023-03-21T17:43:03.737Z,3.97
2023-03-21T17:45:32.630Z,3.50
2023-03-21T17:48:02.090Z,3.35
2023-03-21T17:50:37.026Z,7.28
2023-03-21T17:53:08.581Z,8.32
2023-03-21T17:55:37.875Z,6.32
2023-03-21T17:58:08.026Z,12.48
2023-03-21T18:00:38.585Z,8.27
2023-03-21T18:03:07.564Z,9.30
2023-03-21T18:05:36.453Z,4.68
2023-03-21T18:08:11.282Z,6.30
2023-03-21T18:10:43.042Z,4.35
2023-03-21T18:13:12.521Z,7.88
2023-03-21T18:15:44.703Z,5.72
2023-03-21T18:18:15.739Z,7.63
2023-03-21T18:20:52.029Z,5.78
2023-03-21T18:23:30.043Z,6.47
2023-03-21T18:26:00.322Z,7.20
2023-03-21T18:28:31.017Z,7.35
2023-03-21T18:31:11.434Z,6.75
2023-03-21T18:33:45.714Z,9.07
2023-03-21T18:36:24.788Z,12.07
2023-03-21T18:38:57.146Z,7.80
2023-03-21T18:41:28.313Z,9.68
2023-03-21T18:44:05.393Z,10.18
2023-03-21T18:46:47.615Z,8.98
2023-03-21T18:52:10.052Z,10.77
2023-03-21T18:54:45.495Z,11.23
2023-03-21T18:57:37.863Z,9.43
2023-03-21T19:00:13.903Z,9.02
2023-03-21T19:02:47.874Z,10.80
2023-03-21T19:05:22.008Z,11.10
2023-03-21T19:07:54.298Z,10.38
2023-03-21T19:10:28.812Z,12.38
2023-03-21T19:12:59.212Z,8.95
2023-03-21T19:15:29.894Z,9.45
2023-03-21T19:18:37.296Z,12.02
2023-03-21T19:20:51.098Z,14.27
2023-03-21T19:23:21.968Z,10.65
2023-03-21T19:25:53.821Z,12.48
2023-03-21T19:28:24.591Z,15.55
2023-03-21T19:30:57.251Z,17.40
2023-03-21T19:33:28.016Z,17.67
2023-03-21T19:36:12.940Z,12.98
2023-03-21T19:38:46.523Z,14.50
2023-03-21T19:41:18.561Z,14.40
2023-03-21T19:43:55.240Z,14.75
2023-03-21T19:46:27.496Z,14.38
2023-03-21T19:49:01.254Z,18.95
2023-03-21T19:51:32.767Z,16.85
2023-03-21T19:54:06.783Z,20.30
2023-03-21T19:56:39.129Z,15.93
2023-03-21T19:59:10.650Z,17.33
2023-03-21T20:01:41.277Z,12.05
2023-03-21T20:04:11.858Z,10.02
2023-03-21T20:06:42.132Z,12.20
2023-03-21T20:12:08.976Z,12.60
2023-03-21T20:14:49.088Z,9.10
2023-03-21T20:17:20.821Z,7.65
2023-03-21T20:19:53.915Z,7.30
2023-03-21T20:22:35.998Z,6.82
2023-03-21T20:25:17.144Z,6.68
2023-03-21T20:28:00.093Z,11.45
2023-03-21T20:30:39.389Z,6.47
2023-03-21T20:33:10.179Z,6.80
2023-03-21T20:36:29.424Z,6.28
2023-03-21T20:38:38.331Z,4.40
2023-03-21T20:41:09.556Z,5.25
2023-03-21T20:46:31.783Z,4.80
2023-03-21T20:49:02.088Z,4.45
2023-03-21T20:52:35.977Z,5.28
2023-03-21T20:54:23.555Z,5.57
2023-03-21T20:56:53.689Z,4.70
2023-03-21T20:59:28.208Z,6.47
2023-03-21T21:01:59.464Z,6.60
2023-03-21T21:04:52.958Z,4.57
2023-03-21T21:07:23.018Z,9.07
2023-03-21T21:09:53.238Z,6.90
2023-03-21T21:12:28.401Z,6.15
2023-03-21T21:14:59.447Z,6.35
2023-03-21T21:17:57.951Z,5.82
2023-03-21T21:20:20.814Z,5.97
2023-03-21T21:23:00.055Z,9.52
2023-03-21T21:25:30.821Z,6.57
2023-03-21T21:28:01.666Z,6.53
2023-03-21T21:30:33.735Z,7.45
2023-03-21T21:33:02.326Z,5.80
2023-03-21T21:35:33.589Z,6.75
2023-03-21T21:38:02.134Z,6.47
2023-03-21T21:40:31.171Z,7.07
2023-03-21T21:43:03.517Z,7.35
2023-03-21T21:45:33.586Z,6.60
2023-03-21T21:48:02.198Z,6.72
2023-03-21T21:50:30.716Z,8.10
2023-03-21T21:53:03.946Z,7.65
2023-03-21T21:55:33.373Z,6.35
2023-03-21T21:58:01.971Z,8.07
2023-03-21T22:00:34.204Z,5.97
2023-03-21T22:03:03.037Z,8.60
2023-03-21T22:05:32.004Z,9.68
2023-03-21T22:08:00.442Z,6.93
2023-03-21T22:10:29.440Z,7.18
2023-03-21T22:12:57.887Z,8.25
2023-03-21T22:15:27.108Z,8.15
2023-03-21T22:17:57.112Z,5.97
2023-03-21T22:20:25.673Z,7.93
2023-03-21T22:22:56.701Z,5.63
2023-03-21T22:25:25.559Z,4.90
2023-03-21T22:27:54.316Z,6.93
2023-03-21T22:30:22.911Z,5.35
2023-03-21T22:33:06.181Z,5.88
2023-03-21T22:35:38.533Z,5.53
2023-03-21T22:38:07.060Z,6.15
2023-03-21T22:40:35.529Z,4.38
2023-03-21T22:43:04.013Z,7.72
2023-03-21T22:45:34.886Z,4.32
2023-03-21T22:48:03.588Z,5.88
2023-03-21T22:50:32.080Z,5.32
2023-03-21T22:53:01.910Z,7.47
2023-03-21T22:55:30.546Z,8.02
2023-03-21T22:57:59.082Z,6.25
2023-03-21T23:00:27.690Z,6.75
2023-03-21T23:02:57.251Z,7.40
2023-03-21T23:05:25.741Z,9.98
2023-03-21T23:07:54.625Z,8.85
2023-03-21T23:10:26.353Z,7.50
2023-03-21T23:12:54.789Z,8.13
2023-03-21T23:15:23.421Z,9.77
2023-03-21T23:17:51.818Z,7.70
2023-03-21T23:20:20.506Z,6.88
2023-03-21T23:22:48.966Z,10.60
2023-03-21T23:25:20.587Z,6.20
2023-03-21T23:27:50.672Z,7.63
2023-03-21T23:30:19.227Z,7.45
2023-03-21T23:32:48.228Z,7.15
2023-03-21T23:35:16.907Z,7.65
2023-03-21T23:37:50.012Z,15.48
2023-03-21T23:40:18.790Z,8.60
2023-03-21T23:42:47.250Z,11.70
2023-03-21T23:45:17.387Z,8.10
2023-03-21T23:47:45.922Z,6.30
2023-03-21T23:50:14.483Z,5.45
2023-03-21T23:52:42.927Z,7.18
2023-03-21T23:55:11.721Z,4.95
2023-03-21T23:57:41.917Z,6.13
